Information for Aspen-Pitkin County Airport

back to airport list

ICAO Code:KASE Country:United States of America
Airport Name:Aspen-Pitkin County Airport Is Hub:No
Latitude:39.2231 Longitude:-106.869
Scheduled Departures:0 Scheduled Arrivals:1
Total Past Departures:1 Total Past Arrivals:1
Pilots Based:0 Current Pilot Location:0
KASE 202053Z 33004KT 10SM CLR 04/M06 A3011 RMK AO2 SLP183 T00391056 58007


Nearby Destination Airports

ICAO Airport Country GC Distance View
KDEN Denver International Airport USA 109 NM View Airport Page


+ Show Timetable

Scheduled Departures from KASE

Flight To Destination Days Dep. Time Aircraft Info
No Scheduled Departures!


Scheduled Arrivals to KASE

Flight From Origin Days Arr. Time Aircraft Info
ASXC41 CYVR Vancouver Su M T W Th F S 00:15 B734 View Info
+ Show Recent Flight Info

Recent Departures from KASE

Flight To Destination Pilot Flighttime Landingrate Aircraft View
ASXC42 KATL Hartsfield–Jackson Atlanta International Airport Damian Belica 03.13.58 -341 ft/m B734 View Report


Recent Arrivals to KASE

Flight From Origin Pilot Flighttime Landingrate Aircraft View
ASXC41 CYVR Vancouver Damian Belica 03.04.02 -251 ft/m B734 View Report
+ Show Pilot Information

Pilots based at KASE

Avatar Pilot ID Name Location Rank View Profile
No Pilots are based at this airport!


Pilots currently at KASE

Avatar Pilot ID Name Location Rank On Location since View Profile
Currently there are no pilots at this airport!
- Hide Map